Etusivu
METAR-TAF:

METAR-TAF

Lentoasemat :

Vojens, Tanska

Leveyspiiri: 55-14N, Pituuspiiri: 009-16E, korkeus merenpinnasta: 43 m

Tämänhetkinen sää

Tämä raportti tehtiin 38 minuuttia sitten, kello 13.50 UTC
Tuuli 13 kn lännestä
Lämpötila 18°C
Kosteus 73%
Ilmanpaine 1004 hPa
Näkyvyys 10 km tai enemmän
Hajanaisia pilviä 3000 ft:n korkeudessa
Hajanaisia pilviä 8000 ft:n korkeudessa
Hajonneita pilviä 20000 ft:n korkeudessa

METAR: EKSP 271350Z 27013KT 9999 SCT030 SCT080 BKN200 18/13 Q1004

Aika: 16:28 (14:28 UTC)

Sääennuste

Tämä raportti tehtiin 3 tuntia ja 10 minuuttia sitten, kello 11.18 UTC
Ennuste voimassa 27. päivästä klo 12 UTC - 28. päivään klo 12 UTC
Tuuli 12 kn lännestä
Näkyvyys 10 km tai enemmän
Hajanaisia pilviä 2000 ft:n korkeudessa
Ajoittain
27. päivästä klo 21 UTC - 28. päivään klo 12 UTC
Näkyvyys: 6000 m
Hajanaisia pilviä 2000 ft:n korkeudessa, Cumulonimbus.
vesikuuroja

TAF: EKSP 271118Z 2712/2812 27012KT 9999 SCT020 TEMPO 2721/2812 6000 SHRA SCT020CB

Säähavainnot ja -ennusteet yli 4000 lentoasemalta (METAR- ja TAF-raportit).

Käytössä olevat sääasemat on merkitty karttaan keltaisilla ja punaisilla pisteillä.

Aseta hiiri pisteen päälle nähdäksesi sääaseman nimen.

Klikkaa sitten nähdäksesi säähavainnot ja -ennusteet.

Kartan vaihtaminen: klikkaa mustalla rastilla varustettuja vihreitä pisteitä, niin voit zoomata sisään; viivalla varustettua vihreää pistettä, niin voit zoomata ulos tai vihreitä nuolia, niin pääset viereisille kartoille.


METAR-TAF: